KOQT  Oak Ridge Airport

Add Bookmark

Tennessee, United States

Status
Operational
Latitude Longitude
36° 1' 12" N 84° 13' 48" W
36.020000 -84.230000
Local (DST -4) UTC (GMT -5)
Sep 20, 2014 09:57 Sep 20, 2014 13:57
Sunrise-Sunset Local UTC
Begin Civil Twilight 06:57 10:57
Sunrise 07:22 11:22
Sunset 07:37 23:37
End Civil Twilight 08:03 00:03

Current Weather

METAR Observed VFR
KOQT 201322Z AUTO 00000KT 10SM SCT002 17/17 A3020 Sat, Sep 20, 2014 @ 13:22 UTC
(35 Minutes ago)
Visual Flight Rules
Wind Visibility Clouds Conditions
Calm 10 statute miles
  • Scattered at 200' AGL
  • No significant weather
Temperatures Readings Precipitation
Current Temp 17°C (63°F)
Dewpoint 17°C (63°F)
Humidity 100%
Altimeter 30.2"Hg
Sea Level Pressure 1023mb
Field Elevation 908.79'
None Recorded

Additional weather within a 50nm radius of KOQT

Map ICAO Location
KTYS 17nm S (137°)
KMMI 40.6nm S (204°)
KCSV 41.7nm W (265°)
1A6 42.7nm N (034°)

24 Hour Weather History

Loading
-

24 Hour Weather Graphs

Loading
-

CheckWX.com is intended as a tool to help pilots better visualize weather data. It is not intended as a substitute for an official weather briefing obtained from a Flight Service Station. CheckWX.com does not meet the FAA requirements for an official pre-flight weather briefing. Therefore, it's important that pilots still call and obtain an official FSS pre-flight weather briefing.